Time;durP1;ratioP1;P1;durP2;ratioP2;P2;SDS_P1;SDS_P2;PMS_P1;PMS_P2;Temp;Humidity;BMP_temperature;BMP_pressure;BME280_temperature;BME280_humidity;BME280_pressure;Samples;Min_cycle;Max_cycle;Signal;HPM_P1;HPM_P2
2022/07/29 00:00:00;;;;;;;10.63;9.67;;;21.60;99.90;;;;;;4999209;28;20451;-81
2022/07/29 00:02:28;;;;;;;10.50;9.60;;;21.60;99.90;;;;;;4999283;28;20447;-81
2022/07/29 00:04:56;;;;;;;10.83;9.93;;;21.60;99.90;;;;;;4998538;28;20787;-81
2022/07/29 00:07:23;;;;;;;10.60;9.70;;;21.60;99.90;;;;;;4998950;28;21019;-81
2022/07/29 00:09:50;;;;;;;10.13;9.10;;;21.50;99.90;;;;;;4998809;28;20536;-81
2022/07/29 00:12:17;;;;;;;9.90;8.60;;;21.50;99.90;;;;;;4999821;28;20490;-81
2022/07/29 00:14:44;;;;;;;12.23;9.53;;;21.40;99.90;;;;;;5011283;28;20464;-81
2022/07/29 00:17:10;;;;;;;8.27;7.57;;;21.50;99.90;;;;;;5012666;28;20443;-81
2022/07/29 00:19:37;;;;;;;8.40;7.80;;;21.50;99.90;;;;;;5012168;28;20439;-81
2022/07/29 00:22:05;;;;;;;9.27;8.50;;;21.60;99.90;;;;;;5002788;28;21003;-81
2022/07/29 00:24:32;;;;;;;8.67;7.97;;;21.50;99.90;;;;;;4997815;28;20921;-80
2022/07/29 00:26:58;;;;;;;7.47;6.83;;;21.60;99.90;;;;;;5006155;28;20536;-81
2022/07/29 00:29:25;;;;;;;10.07;7.70;;;21.60;99.90;;;;;;5002322;28;20451;-81
2022/07/29 00:31:52;;;;;;;9.40;8.60;;;21.50;99.90;;;;;;5003658;28;20480;-82
2022/07/29 00:37:04;;;;;;;8.03;7.33;;;21.40;99.90;;;;;;4999045;28;21011;-81
2022/07/29 00:39:31;;;;;;;12.03;8.73;;;21.40;99.90;;;;;;4997505;28;20455;-79
2022/07/29 00:41:58;;;;;;;9.73;8.30;;;21.30;99.90;;;;;;4998806;28;20458;-80
2022/07/29 00:44:24;;;;;;;9.40;8.60;;;21.30;99.90;;;;;;4998804;28;21011;-80
2022/07/29 00:46:51;;;;;;;9.63;8.73;;;21.20;99.90;;;;;;4998503;28;20479;-80
2022/07/29 00:49:18;;;;;;;9.10;8.27;;;21.10;99.90;;;;;;4998338;28;20469;-81
2022/07/29 00:51:44;;;;;;;11.00;10.03;;;21.20;99.90;;;;;;4998663;28;20491;-80
2022/07/29 00:54:13;;;;;;;11.43;10.30;;;21.20;99.90;;;;;;4998033;28;21018;-81
2022/07/29 00:56:40;;;;;;;13.50;11.00;;;21.20;99.90;;;;;;5003032;28;20501;-81
2022/07/29 00:59:06;;;;;;;11.50;10.37;;;21.20;99.90;;;;;;5004555;28;20501;-81
2022/07/29 01:01:33;;;;;;;11.73;10.53;;;21.20;99.90;;;;;;5004681;28;20489;-81
2022/07/29 01:04:00;;;;;;;10.17;9.33;;;21.30;99.90;;;;;;5010150;28;20455;-81
2022/07/29 01:06:27;;;;;;;11.00;10.00;;;21.30;99.90;;;;;;5010847;28;20987;-81
2022/07/29 01:08:55;;;;;;;10.53;9.60;;;21.30;99.90;;;;;;5006792;28;20435;-81
2022/07/29 01:11:26;;;;;;;11.10;10.10;;;21.30;99.90;;;;;;5006913;28;20475;-81
2022/07/29 01:13:53;;;;;;;9.87;8.97;;;21.40;99.90;;;;;;5005411;28;20531;-81
2022/07/29 01:16:25;;;;;;;11.50;10.53;;;21.30;99.90;;;;;;5005095;28;20467;-81
2022/07/29 01:18:57;;;;;;;10.83;9.93;;;21.40;99.90;;;;;;5005355;28;20454;-81
2022/07/29 01:21:50;;;;;;;10.50;9.33;;;21.30;99.90;;;;;;5009562;28;20443;-81
2022/07/29 01:24:45;;;;;;;11.17;10.07;;;21.30;99.90;;;;;;5023292;28;20443;-81
2022/07/29 01:27:33;;;;;;;10.77;9.13;;;21.20;99.90;;;;;;5010988;28;20474;-81
2022/07/29 01:30:02;;;;;;;9.90;9.10;;;21.30;99.90;;;;;;5006720;28;20479;-81
2022/07/29 01:32:33;;;;;;;9.40;8.50;;;21.30;99.90;;;;;;5005495;28;20479;-81
2022/07/29 01:35:05;;;;;;;11.10;9.67;;;21.20;99.90;;;;;;5005026;28;20505;-81
2022/07/29 01:37:43;;;;;;;9.73;9.03;;;21.20;99.90;;;;;;5005029;28;20473;-82
2022/07/29 01:40:18;;;;;;;10.10;9.20;;;21.20;99.90;;;;;;5005016;28;20816;-81
2022/07/29 01:42:49;;;;;;;10.87;9.63;;;21.20;99.90;;;;;;5004311;28;20849;-81
2022/07/29 01:45:20;;;;;;;11.43;10.43;;;21.20;99.90;;;;;;5002786;28;20475;-81
2022/07/29 01:47:57;;;;;;;11.33;10.30;;;21.10;99.90;;;;;;5003658;28;20462;-81
2022/07/29 01:50:32;;;;;;;11.80;10.70;;;21.10;99.90;;;;;;5003446;28;20443;-81
2022/07/29 01:53:01;;;;;;;11.53;10.43;;;21.00;99.90;;;;;;5003626;28;20482;-80
2022/07/29 01:55:30;;;;;;;11.60;10.40;;;21.00;99.90;;;;;;5003190;28;20478;-81
2022/07/29 01:57:59;;;;;;;11.97;10.07;;;21.00;99.90;;;;;;5003040;28;20451;-81
2022/07/29 02:00:29;;;;;;;10.70;9.60;;;20.90;99.90;;;;;;5003160;28;20482;-80
2022/07/29 02:02:58;;;;;;;10.43;9.63;;;20.90;99.90;;;;;;5012844;28;20806;-80
2022/07/29 02:05:27;;;;;;;10.13;9.20;;;20.90;99.90;;;;;;5012815;28;20477;-81
2022/07/29 02:07:56;;;;;;;10.73;9.27;;;20.90;99.90;;;;;;5000403;28;21005;-80
2022/07/29 02:10:27;;;;;;;10.07;9.23;;;20.90;99.90;;;;;;5001437;28;20451;-81
2022/07/29 02:12:55;;;;;;;10.60;9.70;;;20.90;99.90;;;;;;5000277;28;20483;-81
2022/07/29 02:15:23;;;;;;;11.90;9.10;;;20.90;99.90;;;;;;4999860;28;20948;-81
2022/07/29 02:17:55;;;;;;;9.60;8.53;;;20.80;99.90;;;;;;5000899;28;20551;-81
2022/07/29 02:20:25;;;;;;;9.40;7.90;;;20.70;99.90;;;;;;5002127;28;20450;-81
2022/07/29 02:22:54;;;;;;;9.93;9.03;;;20.80;99.90;;;;;;5007426;28;20440;-81
2022/07/29 02:25:22;;;;;;;9.50;8.70;;;20.80;99.90;;;;;;5000055;28;20472;-81
2022/07/29 02:27:51;;;;;;;9.03;8.13;;;20.80;99.90;;;;;;5007607;28;20451;-81
2022/07/29 02:30:19;;;;;;;8.63;7.93;;;20.80;99.90;;;;;;5012910;28;20436;-81
2022/07/29 02:32:47;;;;;;;9.20;8.37;;;20.70;99.90;;;;;;5014101;28;20518;-81
2022/07/29 02:35:16;;;;;;;8.50;7.70;;;20.60;99.90;;;;;;5007268;28;20467;-81
2022/07/29 02:37:45;;;;;;;9.37;8.57;;;20.60;99.90;;;;;;5004198;28;20447;-80
2022/07/29 02:40:14;;;;;;;8.23;7.53;;;20.50;99.90;;;;;;5002667;28;20432;-81
2022/07/29 02:42:46;;;;;;;7.17;6.47;;;20.50;99.90;;;;;;5000578;28;20455;-80
2022/07/29 02:45:12;;;;;;;7.17;6.57;;;20.50;99.90;;;;;;5002480;28;20543;-80
2022/07/29 02:47:44;;;;;;;7.80;7.10;;;20.60;99.90;;;;;;5003137;28;20470;-80
2022/07/29 02:50:17;;;;;;;8.57;7.77;;;20.60;99.90;;;;;;4997574;28;20916;-81
2022/07/29 02:52:47;;;;;;;7.60;6.87;;;20.50;99.90;;;;;;4996927;28;20487;-81
2022/07/29 02:57:54;;;;;;;7.80;7.10;;;20.40;99.90;;;;;;4985051;28;20472;-87
2022/07/29 03:00:24;;;;;;;7.70;7.00;;;20.40;99.90;;;;;;4996986;28;20461;-86
2022/07/29 03:02:54;;;;;;;7.57;6.90;;;20.40;99.90;;;;;;4990046;28;20452;-87
2022/07/29 03:05:23;;;;;;;7.97;7.23;;;20.50;99.90;;;;;;4980567;28;20526;-87
2022/07/29 03:07:56;;;;;;;6.90;6.30;;;20.50;99.90;;;;;;4978900;28;20538;-87
2022/07/29 03:10:24;;;;;;;7.93;7.00;;;20.50;99.90;;;;;;4978302;28;20873;-88
2022/07/29 03:12:51;;;;;;;7.83;6.70;;;20.50;99.90;;;;;;4978673;28;20524;-87
2022/07/29 03:15:19;;;;;;;7.90;7.10;;;20.50;99.90;;;;;;4976707;28;20453;-87
2022/07/29 03:17:46;;;;;;;7.67;6.97;;;20.50;99.90;;;;;;4975732;28;20659;-87
2022/07/29 03:20:14;;;;;;;6.93;6.43;;;20.40;99.90;;;;;;4975755;28;20515;-87
2022/07/29 03:22:43;;;;;;;9.30;7.00;;;20.30;99.90;;;;;;4975447;28;20532;-86
2022/07/29 03:25:13;;;;;;;8.33;7.07;;;20.30;99.90;;;;;;4979079;28;20475;-86
2022/07/29 03:27:40;;;;;;;7.47;6.77;;;20.30;99.90;;;;;;4984333;28;20507;-85
2022/07/29 03:30:09;;;;;;;7.90;7.13;;;20.30;99.90;;;;;;4977828;28;20445;-86
2022/07/29 03:32:36;;;;;;;7.93;7.17;;;20.30;99.90;;;;;;4977447;28;20534;-86
2022/07/29 03:35:03;;;;;;;8.50;7.80;;;20.40;99.90;;;;;;4973708;28;20448;-88
2022/07/29 03:37:30;;;;;;;8.93;8.13;;;20.30;99.90;;;;;;4983743;28;20465;-90
2022/07/29 03:39:59;;;;;;;7.97;7.30;;;20.30;99.90;;;;;;4984140;28;20444;-89
2022/07/29 03:42:28;;;;;;;7.63;7.00;;;20.30;99.90;;;;;;4978410;28;20448;-89
2022/07/29 03:44:57;;;;;;;7.90;7.30;;;20.30;99.90;;;;;;4978283;28;20453;-89
2022/07/29 03:47:28;;;;;;;7.87;7.27;;;20.40;99.90;;;;;;4979741;28;21063;-88
2022/07/29 03:50:00;;;;;;;8.30;7.60;;;20.30;99.90;;;;;;4978584;28;20456;-89
2022/07/29 03:52:27;;;;;;;8.67;7.67;;;20.20;99.90;;;;;;4992647;28;20488;-90
2022/07/29 03:54:53;;;;;;;7.90;7.20;;;20.20;99.90;;;;;;4985474;28;20471;-89
2022/07/29 03:57:25;;;;;;;7.67;7.07;;;20.20;99.90;;;;;;4975401;28;20581;-88
2022/07/29 03:59:53;;;;;;;8.10;7.30;;;20.20;99.90;;;;;;4976418;28;20451;-89
2022/07/29 04:02:21;;;;;;;9.30;7.70;;;20.20;99.90;;;;;;4975461;28;20448;-88
2022/07/29 04:04:48;;;;;;;8.57;7.87;;;20.20;99.90;;;;;;4975234;28;20495;-90
2022/07/29 04:07:15;;;;;;;9.77;7.63;;;20.20;99.90;;;;;;4976463;28;20464;-89
2022/07/29 04:09:42;;;;;;;9.03;8.30;;;20.30;99.90;;;;;;4976087;28;20444;-88
2022/07/29 04:12:09;;;;;;;8.77;8.07;;;20.20;99.90;;;;;;4980556;28;20456;-88
2022/07/29 04:14:37;;;;;;;8.87;8.27;;;20.20;99.90;;;;;;4992231;28;20504;-88
2022/07/29 04:17:05;;;;;;;10.10;7.43;;;20.20;99.90;;;;;;4980940;28;20468;-89
2022/07/29 04:19:33;;;;;;;8.97;8.17;;;20.20;99.90;;;;;;4975902;28;20965;-89
2022/07/29 04:22:00;;;;;;;9.60;8.63;;;20.20;99.90;;;;;;4977209;28;20456;-88
2022/07/29 04:24:27;;;;;;;10.40;9.40;;;20.20;99.90;;;;;;4998600;28;20429;-89
2022/07/29 04:26:54;;;;;;;8.77;7.87;;;20.20;99.90;;;;;;4997352;28;20553;-89
2022/07/29 04:29:21;;;;;;;8.17;7.47;;;20.30;99.90;;;;;;4983064;28;20441;-88
2022/07/29 04:31:49;;;;;;;10.23;8.47;;;20.30;99.90;;;;;;4977282;28;20456;-89
2022/07/29 04:34:16;;;;;;;9.43;7.73;;;20.30;99.90;;;;;;4977852;28;20898;-89
2022/07/29 04:36:42;;;;;;;9.37;8.60;;;20.30;99.90;;;;;;4974754;28;21000;-89
2022/07/29 04:39:09;;;;;;;7.97;7.23;;;20.30;99.90;;;;;;4976176;28;20863;-89
2022/07/29 04:41:36;;;;;;;9.43;8.53;;;20.40;99.90;;;;;;4974716;28;20452;-89
2022/07/29 04:44:05;;;;;;;8.90;7.90;;;20.40;99.90;;;;;;4974465;28;20451;-89
2022/07/29 04:46:32;;;;;;;8.90;8.20;;;20.40;99.90;;;;;;4974000;28;20503;-88
2022/07/29 04:49:00;;;;;;;9.90;7.93;;;20.50;99.90;;;;;;4974493;28;20455;-88
2022/07/29 04:51:27;;;;;;;8.60;8.00;;;20.40;99.90;;;;;;4974432;28;20507;-89
2022/07/29 04:53:53;;;;;;;8.70;7.90;;;20.50;99.90;;;;;;4974882;28;20484;-88
2022/07/29 04:56:20;;;;;;;8.07;7.37;;;20.50;99.90;;;;;;4973142;28;21005;-89
2022/07/29 04:58:47;;;;;;;8.60;7.80;;;20.60;99.90;;;;;;4974247;28;20455;-88
2022/07/29 05:01:14;;;;;;;8.63;7.53;;;20.70;99.90;;;;;;4975971;28;20459;-89
2022/07/29 05:03:41;;;;;;;9.40;8.60;;;20.70;99.90;;;;;;4974350;28;20440;-88
2022/07/29 05:06:09;;;;;;;13.70;9.20;;;20.80;99.90;;;;;;4974292;28;20482;-88
2022/07/29 05:08:36;;;;;;;10.20;7.67;;;20.80;99.90;;;;;;4973925;28;21078;-88
2022/07/29 05:11:03;;;;;;;8.77;7.87;;;21.00;99.90;;;;;;4975193;28;20448;-88
2022/07/29 05:13:30;;;;;;;10.13;7.37;;;21.10;99.90;;;;;;4975473;28;20483;-88
2022/07/29 05:15:58;;;;;;;10.03;8.17;;;21.30;99.90;;;;;;4975039;28;20464;-89
2022/07/29 05:18:24;;;;;;;11.13;9.20;;;21.70;99.90;;;;;;4974803;28;20456;-90
2022/07/29 05:20:51;;;;;;;9.90;8.13;;;22.20;99.90;;;;;;4975568;28;20456;-89
2022/07/29 05:23:19;;;;;;;9.83;8.10;;;22.60;99.90;;;;;;4975344;28;20483;-89
2022/07/29 05:25:46;;;;;;;12.67;9.50;;;23.00;99.90;;;;;;4974076;28;20468;-89
2022/07/29 05:28:13;;;;;;;11.50;9.80;;;23.30;99.90;;;;;;4975320;28;20448;-89
2022/07/29 05:30:39;;;;;;;15.53;9.70;;;23.60;99.90;;;;;;4979419;28;20479;-89
2022/07/29 05:33:06;;;;;;;10.90;9.40;;;23.60;99.90;;;;;;4991120;28;20464;-90
2022/07/29 05:35:34;;;;;;;12.03;10.93;;;23.60;99.90;;;;;;4995850;28;20455;-89
2022/07/29 05:38:01;;;;;;;10.10;9.10;;;23.70;99.90;;;;;;4990295;28;20440;-89
2022/07/29 05:40:29;;;;;;;11.20;10.03;;;23.70;99.90;;;;;;4980179;28;20448;-89
2022/07/29 05:42:56;;;;;;;11.83;10.60;;;23.80;99.90;;;;;;4977861;28;20459;-89
2022/07/29 05:45:24;;;;;;;10.47;9.50;;;23.80;99.90;;;;;;4975802;28;20456;-89
2022/07/29 05:47:50;;;;;;;12.93;10.23;;;24.00;99.90;;;;;;4976544;28;20456;-89
2022/07/29 05:50:17;;;;;;;8.80;7.90;;;24.20;99.90;;;;;;4989925;28;20818;-89
2022/07/29 05:52:44;;;;;;;11.17;8.27;;;24.60;99.90;;;;;;4993947;28;20540;-89
2022/07/29 05:55:11;;;;;;;7.40;6.70;;;24.90;99.90;;;;;;4995242;28;20457;-89
2022/07/29 05:57:39;;;;;;;8.13;6.30;;;24.90;99.90;;;;;;4995092;28;20484;-89
2022/07/29 06:00:07;;;;;;;7.13;6.53;;;24.90;99.90;;;;;;4986285;28;20455;-88
2022/07/29 06:02:34;;;;;;;9.27;6.80;;;25.00;99.90;;;;;;4976430;28;20506;-88
2022/07/29 06:05:00;;;;;;;10.00;6.47;;;25.10;99.70;;;;;;4975408;28;20441;-88
2022/07/29 06:07:27;;;;;;;9.00;6.63;;;25.30;99.20;;;;;;4986632;28;20497;-87
2022/07/29 06:09:54;;;;;;;8.13;5.97;;;25.70;97.90;;;;;;4990013;28;20906;-89
2022/07/29 06:12:20;;;;;;;5.70;5.20;;;25.80;97.40;;;;;;4977224;28;20442;-90
2022/07/29 06:14:48;;;;;;;7.10;5.50;;;26.00;96.30;;;;;;4978810;28;20484;-90
2022/07/29 06:17:17;;;;;;;6.00;5.50;;;26.20;95.70;;;;;;4975284;28;20466;-89
2022/07/29 06:19:43;;;;;;;5.90;5.30;;;26.30;94.80;;;;;;4977035;28;20453;-89
2022/07/29 06:22:10;;;;;;;5.87;5.37;;;26.40;94.50;;;;;;4976333;28;20463;-89
2022/07/29 06:24:41;;;;;;;7.03;5.30;;;26.90;94.00;;;;;;4975456;28;20521;-89
2022/07/29 06:27:07;;;;;;;6.07;5.13;;;27.40;92.80;;;;;;4975837;28;20502;-89
2022/07/29 06:29:34;;;;;;;6.60;5.33;;;27.90;91.70;;;;;;4975034;28;20436;-89
2022/07/29 06:32:02;;;;;;;8.00;4.93;;;28.30;90.40;;;;;;4975597;28;20502;-89
2022/07/29 06:34:29;;;;;;;6.83;5.47;;;28.80;88.40;;;;;;4980827;28;20500;-90
2022/07/29 06:36:58;;;;;;;4.23;3.83;;;29.40;85.80;;;;;;4975124;28;21019;-88
2022/07/29 06:39:25;;;;;;;4.83;4.20;;;29.80;81.50;;;;;;4974816;28;20472;-90
2022/07/29 06:41:52;;;;;;;7.73;5.40;;;30.30;80.00;;;;;;4976076;28;20445;-90
2022/07/29 06:44:19;;;;;;;6.93;5.07;;;30.00;78.20;;;;;;4974231;28;20439;-90
2022/07/29 06:46:46;;;;;;;4.93;4.53;;;30.00;78.30;;;;;;4972352;28;20475;-90
2022/07/29 06:49:14;;;;;;;6.53;4.33;;;30.50;77.10;;;;;;4974306;28;20888;-90
2022/07/29 06:51:41;;;;;;;4.90;4.40;;;31.00;74.50;;;;;;4974617;28;20879;-90
2022/07/29 06:54:08;;;;;;;5.70;4.77;;;31.50;71.10;;;;;;4973899;28;20531;-90
2022/07/29 06:56:37;;;;;;;4.93;4.43;;;31.30;69.30;;;;;;4974972;28;20479;-90
2022/07/29 06:59:03;;;;;;;5.10;4.47;;;30.60;70.50;;;;;;4973957;28;20452;-89
2022/07/29 07:01:30;;;;;;;4.77;4.37;;;29.80;74.60;;;;;;4972258;28;20442;-89
2022/07/29 07:03:57;;;;;;;6.27;4.77;;;29.80;75.00;;;;;;4974192;28;20838;-89
2022/07/29 07:06:25;;;;;;;5.50;4.90;;;30.00;74.10;;;;;;4974288;28;20472;-89
2022/07/29 07:08:52;;;;;;;4.70;3.93;;;30.70;72.30;;;;;;4974299;28;20455;-90
2022/07/29 07:11:18;;;;;;;4.10;3.60;;;30.60;71.60;;;;;;4974379;28;20512;-90
2022/07/29 07:13:45;;;;;;;4.73;4.30;;;30.30;71.50;;;;;;4970721;28;20915;-88
2022/07/29 07:16:13;;;;;;;4.30;3.87;;;30.20;71.60;;;;;;4975391;28;20468;-89
2022/07/29 07:18:40;;;;;;;5.47;3.97;;;30.70;71.30;;;;;;4975943;28;20864;-89
2022/07/29 07:21:07;;;;;;;5.97;5.20;;;31.00;70.10;;;;;;4974133;28;20755;-88
2022/07/29 07:23:35;;;;;;;5.03;4.50;;;31.10;68.70;;;;;;4974464;28;20455;-88
2022/07/29 07:26:02;;;;;;;4.97;4.57;;;31.00;68.60;;;;;;4972398;28;20605;-87
2022/07/29 07:28:29;;;;;;;4.03;3.63;;;30.70;68.90;;;;;;4977277;28;20515;-87
2022/07/29 07:30:56;;;;;;;5.73;4.40;;;30.40;71.30;;;;;;4977593;28;20441;-88
2022/07/29 07:33:23;;;;;;;5.23;4.73;;;31.00;69.00;;;;;;4979919;28;20489;-87
2022/07/29 07:35:49;;;;;;;5.50;5.00;;;31.10;68.40;;;;;;4976761;28;20471;-86
2022/07/29 07:38:16;;;;;;;11.63;5.00;;;30.80;69.70;;;;;;4977823;28;20447;-88
2022/07/29 07:40:46;;;;;;;6.27;4.40;;;30.50;69.40;;;;;;4986233;28;20452;-89
2022/07/29 07:43:13;;;;;;;5.53;4.30;;;30.80;69.50;;;;;;4991821;28;20453;-88
2022/07/29 07:45:41;;;;;;;6.10;4.53;;;31.00;68.20;;;;;;4979119;28;20808;-89
2022/07/29 07:48:10;;;;;;;4.77;4.37;;;31.30;68.00;;;;;;4974295;28;20533;-88
2022/07/29 07:50:37;;;;;;;6.70;4.43;;;32.00;66.00;;;;;;4973889;28;20500;-88
2022/07/29 07:53:04;;;;;;;5.60;4.30;;;31.70;64.70;;;;;;4972935;28;20455;-88
2022/07/29 07:55:31;;;;;;;7.13;4.60;;;32.70;63.40;;;;;;4976060;28;20445;-88
2022/07/29 07:57:59;;;;;;;5.50;5.10;;;33.30;61.30;;;;;;4973581;28;20443;-89
2022/07/29 08:00:26;;;;;;;5.20;4.63;;;33.70;59.50;;;;;;4973613;28;20459;-88
2022/07/29 08:02:53;;;;;;;7.57;4.10;;;33.60;59.00;;;;;;4973671;28;20450;-88
2022/07/29 08:05:20;;;;;;;4.87;4.40;;;33.00;59.30;;;;;;4994811;28;20423;-88
2022/07/29 08:07:47;;;;;;;7.13;4.73;;;33.20;59.50;;;;;;4995285;28;20435;-85
2022/07/29 08:10:14;;;;;;;5.17;4.20;;;33.00;59.80;;;;;;4994980;28;20427;-89
2022/07/29 08:12:43;;;;;;;6.60;4.33;;;33.00;59.40;;;;;;4989468;28;20451;-85
2022/07/29 08:15:15;;;;;;;4.27;3.87;;;32.80;58.90;;;;;;4977921;28;20487;-88
2022/07/29 08:17:42;;;;;;;4.10;3.80;;;33.80;59.10;;;;;;4977282;28;20479;-87
2022/07/29 08:20:11;;;;;;;5.63;3.97;;;34.60;57.00;;;;;;4985123;28;20466;-87
2022/07/29 08:33:06;;;;;;;5.90;5.40;;;37.20;50.70;;;;;;4751932;29;20462;-87
2022/07/29 08:35:32;;;;;;;5.73;4.83;;;37.00;49.10;;;;;;4815322;29;20510;-86
2022/07/29 08:37:59;;;;;;;6.50;4.83;;;36.60;50.20;;;;;;4952205;28;20790;-86
2022/07/29 08:40:26;;;;;;;4.37;4.07;;;36.80;49.50;;;;;;4984474;28;20818;-86
2022/07/29 08:42:53;;;;;;;7.60;5.00;;;37.50;49.00;;;;;;4981160;28;20425;-87
2022/07/29 08:45:19;;;;;;;4.60;4.20;;;37.70;47.70;;;;;;4997528;28;20470;-87
2022/07/29 08:47:46;;;;;;;5.00;4.50;;;37.50;47.70;;;;;;4981956;28;20513;-86
2022/07/29 08:50:14;;;;;;;5.43;4.93;;;37.50;47.50;;;;;;4974184;28;20447;-86
2022/07/29 08:52:43;;;;;;;6.10;4.80;;;37.30;47.50;;;;;;4975164;28;20460;-86
2022/07/29 08:55:10;;;;;;;4.87;4.37;;;37.20;47.00;;;;;;4973016;28;20483;-85
2022/07/29 09:00:20;;;;;;;5.00;4.40;;;36.40;48.50;;;;;;3327457;26;20470;-88
2022/07/29 09:02:58;;;;;;;7.13;6.10;;;36.40;48.70;;;;;;4980027;28;20506;-89
2022/07/29 09:06:03;;;;;;;4.30;3.90;;;37.10;47.70;;;;;;4975803;28;20487;-89
2022/07/29 09:08:39;;;;;;;5.20;4.60;;;37.10;47.30;;;;;;4972956;28;20527;-89
2022/07/29 09:11:28;;;;;;;9.77;5.97;;;37.30;46.50;;;;;;4971901;28;20459;-86
2022/07/29 09:19:48;;;;;;;5.13;4.63;;;38.90;44.00;;;;;;4974836;28;20452;-88
2022/07/29 09:22:46;;;;;;;5.53;5.03;;;39.60;41.60;;;;;;4975380;28;20459;-89
2022/07/29 09:25:39;;;;;;;5.43;4.97;;;39.20;41.30;;;;;;4928875;29;20859;-88
2022/07/29 09:28:13;;;;;;;7.20;5.43;;;38.20;42.40;;;;;;4967100;28;20848;-89
2022/07/29 09:30:52;;;;;;;5.27;4.43;;;38.40;42.30;;;;;;4978123;28;20952;-88
2022/07/29 09:33:39;;;;;;;5.10;4.70;;;38.60;42.20;;;;;;4981384;28;20451;-88
2022/07/29 09:36:11;;;;;;;5.90;5.13;;;39.70;40.10;;;;;;4998668;28;20455;-87
2022/07/29 09:39:00;;;;;;;4.87;4.43;;;40.30;39.90;;;;;;4997030;28;20475;-88
2022/07/29 09:41:32;;;;;;;4.77;4.30;;;40.10;39.20;;;;;;4980262;28;20456;-88
2022/07/29 09:44:05;;;;;;;4.23;3.80;;;40.00;39.60;;;;;;4979441;28;20484;-89
2022/07/29 09:46:32;;;;;;;4.50;4.17;;;40.20;38.90;;;;;;4977641;28;20503;-89
2022/07/29 09:49:20;;;;;;;4.90;4.50;;;40.20;38.80;;;;;;4978020;28;20472;-89
2022/07/29 09:52:13;;;;;;;7.20;4.97;;;39.90;38.70;;;;;;4985819;28;20444;-86
2022/07/29 10:00:30;;;;;;;6.33;4.07;;;38.80;38.00;;;;;;5225771;23;20495;-88
2022/07/29 10:09:36;;;;;;;5.20;4.70;;;38.80;38.50;;;;;;4999968;23;20512;-87
2022/07/29 10:15:25;;;;;;;6.80;5.00;;;39.10;38.20;;;;;;4974107;28;20446;-86
2022/07/29 10:18:11;;;;;;;5.83;5.33;;;39.30;37.30;;;;;;4974862;28;20531;-87
2022/07/29 10:20:50;;;;;;;4.97;4.47;;;39.20;37.00;;;;;;4976764;28;20498;-87
2022/07/29 10:23:58;;;;;;;5.50;5.07;;;38.70;37.80;;;;;;4977010;28;20445;-87
2022/07/29 10:26:47;;;;;;;7.80;5.57;;;39.30;37.30;;;;;;4981472;28;20445;-87
2022/07/29 10:29:31;;;;;;;5.23;4.73;;;38.40;37.90;;;;;;4972161;28;20455;-89
2022/07/29 10:32:34;;;;;;;5.80;5.40;;;37.80;39.40;;;;;;4967954;28;20491;-88
2022/07/29 10:35:44;;;;;;;7.37;6.10;;;36.60;40.80;;;;;;4941301;29;20444;-87
2022/07/29 10:38:42;;;;;;;6.43;5.53;;;35.50;42.70;;;;;;4935320;28;20470;-88
2022/07/29 10:41:34;;;;;;;5.73;5.23;;;34.40;45.00;;;;;;4990392;28;20438;-86
2022/07/29 10:44:09;;;;;;;8.33;6.03;;;33.60;46.90;;;;;;5000585;28;20448;-86
2022/07/29 10:46:47;;;;;;;6.80;6.30;;;32.90;48.10;;;;;;4999727;28;20460;-87
2022/07/29 10:49:24;;;;;;;6.70;6.20;;;32.30;49.30;;;;;;4992861;28;20454;-88
2022/07/29 10:52:04;;;;;;;7.13;6.53;;;31.70;51.50;;;;;;4968739;28;20467;-88
2022/07/29 10:54:47;;;;;;;6.60;5.97;;;31.20;54.20;;;;;;4962150;28;20550;-88
2022/07/29 10:57:34;;;;;;;7.20;6.50;;;30.80;56.20;;;;;;4963944;28;20472;-88
2022/07/29 11:00:33;;;;;;;10.20;6.17;;;30.30;57.80;;;;;;4975694;28;20474;-87
2022/07/29 11:03:00;;;;;;;9.17;7.70;;;29.80;59.10;;;;;;4962003;28;20445;-88
2022/07/29 11:05:31;;;;;;;11.97;8.90;;;29.40;63.40;;;;;;4974367;28;20491;-88
2022/07/29 11:08:19;;;;;;;9.10;8.30;;;29.00;68.60;;;;;;4974186;28;20475;-89
2022/07/29 11:10:53;;;;;;;13.60;8.83;;;28.60;72.40;;;;;;4974779;28;20480;-88
2022/07/29 11:20:45;;;;;;;12.70;11.30;;;26.70;87.60;;;;;;4900608;29;20435;-88
2022/07/29 11:23:29;;;;;;;12.90;11.60;;;24.10;98.10;;;;;;4899026;28;20472;-87
2022/07/29 11:26:25;;;;;;;13.30;10.47;;;23.10;99.90;;;;;;4971805;28;20472;-88
2022/07/29 11:29:06;;;;;;;25.50;16.27;;;22.60;99.90;;;;;;4970436;28;20452;-88
2022/07/29 11:31:35;;;;;;;16.53;13.43;;;22.30;99.90;;;;;;4980876;28;20516;-86
2022/07/29 11:34:25;;;;;;;13.83;11.13;;;22.20;99.90;;;;;;4984689;28;20542;-85
2022/07/29 11:37:19;;;;;;;15.47;13.87;;;22.10;99.90;;;;;;4990524;28;20449;-85
2022/07/29 11:39:49;;;;;;;12.33;11.03;;;21.90;99.90;;;;;;4974827;28;20449;-86
2022/07/29 11:42:38;;;;;;;9.40;8.50;;;21.70;99.90;;;;;;4978479;28;20536;-85
2022/07/29 11:45:07;;;;;;;13.70;9.43;;;21.30;99.90;;;;;;4972657;28;20578;-85
2022/07/29 11:47:36;;;;;;;11.33;9.97;;;21.30;99.90;;;;;;4977162;28;20472;-86
2022/07/29 11:50:06;;;;;;;9.10;8.17;;;21.30;99.90;;;;;;4970844;28;22120;-86
2022/07/29 11:52:37;;;;;;;10.37;8.60;;;21.30;99.90;;;;;;4985943;28;20440;-87
2022/07/29 11:55:05;;;;;;;7.23;6.03;;;21.30;99.90;;;;;;4973027;28;20921;-85
2022/07/29 11:57:34;;;;;;;8.90;5.07;;;21.20;99.90;;;;;;4974910;28;20905;-85
2022/07/29 12:00:01;;;;;;;9.57;5.10;;;21.20;99.90;;;;;;4976044;28;20457;-86
2022/07/29 12:02:41;;;;;;;8.70;4.73;;;21.10;99.90;;;;;;4975946;28;20480;-86
2022/07/29 12:05:10;;;;;;;6.97;5.17;;;21.20;99.90;;;;;;4973293;28;20480;-86
2022/07/29 12:07:40;;;;;;;5.13;4.60;;;21.40;99.90;;;;;;4974742;28;20479;-85
2022/07/29 12:10:09;;;;;;;7.30;5.50;;;21.50;99.90;;;;;;4975523;28;20456;-85
2022/07/29 12:12:37;;;;;;;6.63;5.20;;;21.70;99.90;;;;;;4978148;28;20489;-86
2022/07/29 12:15:15;;;;;;;4.83;4.10;;;21.80;99.90;;;;;;4972138;28;20536;-86
2022/07/29 12:17:41;;;;;;;5.53;5.00;;;22.00;99.90;;;;;;4979932;28;20456;-86
2022/07/29 12:20:09;;;;;;;8.43;5.77;;;22.10;99.90;;;;;;4984851;28;20436;-85
2022/07/29 12:22:39;;;;;;;5.60;5.00;;;22.20;99.90;;;;;;4977971;28;20495;-86
2022/07/29 12:25:09;;;;;;;5.90;5.33;;;22.50;99.90;;;;;;4974562;28;20484;-85
2022/07/29 12:27:38;;;;;;;5.77;5.13;;;22.60;99.90;;;;;;4973241;28;20464;-85
2022/07/29 12:30:07;;;;;;;6.10;5.40;;;22.70;99.90;;;;;;4970998;28;20476;-86
2022/07/29 12:32:35;;;;;;;5.60;4.70;;;23.00;99.90;;;;;;4973478;28;20455;-86
2022/07/29 12:35:05;;;;;;;7.50;4.80;;;23.30;99.90;;;;;;4973450;28;20444;-86
2022/07/29 12:37:33;;;;;;;7.33;4.80;;;23.60;99.80;;;;;;4972436;28;20817;-85
2022/07/29 12:40:05;;;;;;;7.87;4.60;;;23.90;99.30;;;;;;4974899;28;20445;-89
2022/07/29 12:42:34;;;;;;;5.97;4.23;;;24.00;99.50;;;;;;4973786;28;20524;-84
2022/07/29 12:45:02;;;;;;;4.87;4.37;;;24.10;97.50;;;;;;4973908;28;21009;-84
2022/07/29 12:47:29;;;;;;;6.13;4.00;;;24.10;97.10;;;;;;4974491;28;20840;-85
2022/07/29 12:50:09;;;;;;;5.10;4.00;;;24.00;95.80;;;;;;4974203;28;20996;-85
2022/07/29 12:52:36;;;;;;;5.57;4.87;;;23.90;96.50;;;;;;4972764;28;20439;-84
2022/07/29 12:55:05;;;;;;;5.80;5.30;;;23.80;96.80;;;;;;4991190;28;20431;-82
2022/07/29 12:57:44;;;;;;;5.93;5.30;;;23.80;97.60;;;;;;4997566;28;20455;-83
2022/07/29 13:00:13;;;;;;;7.50;5.60;;;23.80;97.40;;;;;;4975708;28;20447;-86
2022/07/29 13:02:43;;;;;;;5.83;5.20;;;23.70;96.10;;;;;;4978046;28;20523;-86
2022/07/29 13:05:12;;;;;;;8.67;6.27;;;23.60;96.70;;;;;;4977699;28;20500;-86
2022/07/29 13:07:39;;;;;;;8.10;6.97;;;23.50;97.80;;;;;;4991947;28;20475;-86
2022/07/29 13:10:14;;;;;;;7.83;6.33;;;23.40;98.80;;;;;;4975682;28;20449;-84
2022/07/29 13:13:02;;;;;;;8.33;6.10;;;23.30;99.90;;;;;;4975039;28;20754;-84
2022/07/29 13:15:29;;;;;;;9.67;6.60;;;23.20;99.90;;;;;;4971420;28;20444;-84
2022/07/29 13:17:56;;;;;;;6.73;6.00;;;23.10;99.90;;;;;;4974042;28;20851;-84
2022/07/29 13:20:27;;;;;;;7.40;6.80;;;23.00;99.90;;;;;;4973914;28;20463;-84
2022/07/29 13:22:54;;;;;;;6.57;6.07;;;23.00;99.90;;;;;;4974149;28;20478;-83
2022/07/29 13:25:26;;;;;;;7.30;6.57;;;22.90;99.90;;;;;;4982915;28;20475;-83
2022/07/29 13:27:55;;;;;;;8.07;6.67;;;22.90;99.90;;;;;;4980670;28;20453;-85
2022/07/29 13:30:23;;;;;;;7.43;6.73;;;22.90;99.90;;;;;;4976665;28;20443;-85
2022/07/29 13:32:50;;;;;;;8.60;6.20;;;22.80;99.90;;;;;;4972294;28;20441;-85
2022/07/29 13:35:17;;;;;;;6.33;5.40;;;22.60;99.90;;;;;;4984039;28;20444;-85
2022/07/29 13:37:44;;;;;;;7.43;6.60;;;22.30;99.90;;;;;;4993611;28;20574;-85
2022/07/29 13:40:12;;;;;;;8.80;8.00;;;22.10;99.90;;;;;;4976569;28;20437;-84
2022/07/29 13:42:39;;;;;;;11.70;8.43;;;21.70;99.90;;;;;;4974526;28;20452;-85
2022/07/29 13:45:14;;;;;;;10.20;8.97;;;21.40;99.90;;;;;;4975322;28;20531;-85
2022/07/29 13:47:40;;;;;;;10.10;9.20;;;21.40;99.90;;;;;;4974208;28;20806;-86